createdAt,value
2019-06-01T00:01:44.602Z,90.20
2019-06-01T00:04:15.118Z,90.10
2019-06-01T00:06:44.945Z,89.90
2019-06-01T00:09:14.627Z,89.50
2019-06-01T00:11:45.561Z,89.30
2019-06-01T00:14:15.635Z,90.00
2019-06-01T00:16:46.063Z,90.00
2019-06-01T00:19:15.971Z,90.10
2019-06-01T00:21:45.692Z,89.70
2019-06-01T00:24:15.320Z,89.90
2019-06-01T00:26:45.856Z,90.10
2019-06-01T00:29:17.102Z,89.70
2019-06-01T00:31:47.924Z,89.90
2019-06-01T00:34:18.206Z,90.20
2019-06-01T00:36:47.989Z,90.30
2019-06-01T00:39:17.804Z,90.20
2019-06-01T00:41:48.066Z,90.00
2019-06-01T00:44:18.036Z,90.00
2019-06-01T00:46:48.749Z,90.20
2019-06-01T00:49:18.480Z,89.90
2019-06-01T00:51:49.092Z,90.00
2019-06-01T00:54:19.030Z,89.70
2019-06-01T00:56:49.712Z,89.70
2019-06-01T00:59:20.747Z,89.30
2019-06-01T01:01:50.594Z,89.00
2019-06-01T01:04:20.331Z,89.90
2019-06-01T01:06:50.875Z,89.60
2019-06-01T01:09:21.939Z,89.40
2019-06-01T01:11:53.308Z,89.80
2019-06-01T01:14:23.177Z,89.40
2019-06-01T01:16:54.142Z,89.70
2019-06-01T01:19:24.115Z,89.40
2019-06-01T01:21:56.322Z,89.30
2019-06-01T01:24:26.199Z,89.30
2019-06-01T01:26:56.809Z,89.40
2019-06-01T01:29:27.647Z,88.90
2019-06-01T01:31:57.438Z,90.00
2019-06-01T01:34:28.387Z,90.00
2019-06-01T01:36:58.417Z,90.00
2019-06-01T01:39:28.257Z,89.20
2019-06-01T01:41:58.627Z,89.60
2019-06-01T01:44:28.507Z,89.30
2019-06-01T01:46:59.062Z,88.90
2019-06-01T01:49:29.786Z,88.70
2019-06-01T01:51:59.742Z,88.90
2019-06-01T01:54:29.571Z,89.50
2019-06-01T01:56:59.394Z,90.60
2019-06-01T01:59:29.316Z,89.30
2019-06-01T02:01:59.103Z,89.50
2019-06-01T02:04:29.019Z,89.10
2019-06-01T02:07:00.184Z,89.10
2019-06-01T02:09:30.041Z,88.90
2019-06-01T02:11:59.816Z,88.70
2019-06-01T02:14:29.655Z,88.60
2019-06-01T02:17:00.261Z,88.70
2019-06-01T02:19:30.220Z,88.60
2019-06-01T02:22:00.699Z,88.90
2019-06-01T02:24:30.718Z,88.80
2019-06-01T02:27:01.308Z,89.40
2019-06-01T02:29:31.315Z,89.50
2019-06-01T02:32:01.758Z,89.50
2019-06-01T02:34:32.597Z,88.80
2019-06-01T02:37:02.493Z,89.10
2019-06-01T02:39:32.272Z,89.30
2019-06-01T02:42:03.480Z,89.50
2019-06-01T02:44:33.795Z,89.30
2019-06-01T02:47:04.529Z,89.20
2019-06-01T02:49:35.020Z,90.00
2019-06-01T02:52:05.807Z,89.40
2019-06-01T02:54:35.739Z,88.80
2019-06-01T02:57:06.205Z,89.30
2019-06-01T02:59:36.344Z,89.40
2019-06-01T03:02:10.870Z,89.80
2019-06-01T03:04:38.170Z,89.90
2019-06-01T03:07:09.913Z,89.70
2019-06-01T03:09:41.024Z,89.40
2019-06-01T03:12:12.986Z,89.30
2019-06-01T03:14:45.745Z,89.50
2019-06-01T03:17:19.502Z,89.40
2019-06-01T03:19:56.981Z,89.20
2019-06-01T03:22:29.908Z,89.00
2019-06-01T03:25:03.777Z,89.70
2019-06-01T03:27:36.474Z,89.60
2019-06-01T03:30:12.357Z,90.10
2019-06-01T03:32:40.776Z,90.00
2019-06-01T03:35:13.056Z,90.20
2019-06-01T03:37:43.089Z,90.10
2019-06-01T03:40:23.122Z,90.10
2019-06-01T03:42:44.560Z,89.80
2019-06-01T03:45:14.483Z,89.80
2019-06-01T03:47:44.530Z,90.00
2019-06-01T03:50:14.441Z,90.00
2019-06-01T03:52:44.252Z,89.50
2019-06-01T03:55:14.121Z,88.90
2019-06-01T03:57:44.009Z,89.00
2019-06-01T04:00:14.395Z,89.50
2019-06-01T04:02:44.249Z,89.20
2019-06-01T04:05:14.134Z,88.90
2019-06-01T04:07:43.879Z,89.10
2019-06-01T04:10:13.763Z,89.10
2019-06-01T04:12:43.561Z,89.20
2019-06-01T04:15:16.570Z,89.10
2019-06-01T04:17:45.121Z,89.80
2019-06-01T04:20:15.204Z,89.90
2019-06-01T04:22:45.071Z,89.60
2019-06-01T04:25:14.925Z,89.30
2019-06-01T04:27:44.876Z,88.90
2019-06-01T04:30:15.919Z,87.00
2019-06-01T04:32:49.929Z,86.70
2019-06-01T04:35:17.194Z,85.80
2019-06-01T04:37:46.948Z,86.70
2019-06-01T04:40:16.823Z,86.70
2019-06-01T04:42:47.399Z,86.80
2019-06-01T04:45:17.279Z,86.80
2019-06-01T04:47:47.177Z,87.70
2019-06-01T04:50:17.148Z,85.60
2019-06-01T04:52:47.006Z,85.10
2019-06-01T04:55:16.765Z,83.90
2019-06-01T04:57:46.462Z,83.90
2019-06-01T05:00:27.871Z,82.40
2019-06-01T05:03:02.212Z,82.20
2019-06-01T05:05:20.171Z,81.00
2019-06-01T05:07:49.927Z,80.40
2019-06-01T05:10:19.802Z,80.20
2019-06-01T05:12:49.818Z,79.40
2019-06-01T05:15:19.952Z,78.50
2019-06-01T05:17:49.848Z,79.30
2019-06-01T05:20:20.972Z,79.10
2019-06-01T05:22:50.759Z,79.50
2019-06-01T05:25:20.680Z,77.40
2019-06-01T05:27:50.492Z,76.40
2019-06-01T05:30:20.471Z,76.60
2019-06-01T05:32:50.252Z,77.10
2019-06-01T05:35:20.160Z,71.40
2019-06-01T05:37:49.915Z,70.40
2019-06-01T05:40:19.867Z,73.40
2019-06-01T05:42:49.511Z,73.00
2019-06-01T05:45:22.117Z,73.10
2019-06-01T05:47:50.451Z,73.10
2019-06-01T05:50:20.218Z,71.60
2019-06-01T05:52:49.836Z,70.10
2019-06-01T05:55:19.727Z,68.50
2019-06-01T05:57:49.556Z,68.80
2019-06-01T06:00:22.256Z,70.50
2019-06-01T06:02:52.218Z,72.30
2019-06-01T06:05:22.883Z,69.40
2019-06-01T06:07:52.760Z,70.50
2019-06-01T06:10:22.674Z,67.80
2019-06-01T06:12:53.367Z,68.20
2019-06-01T06:15:23.179Z,69.10
2019-06-01T06:17:52.918Z,69.70
2019-06-01T06:20:22.523Z,68.40
2019-06-01T06:22:52.516Z,69.00
2019-06-01T06:25:28.097Z,67.80
2019-06-01T06:27:54.848Z,66.00
2019-06-01T06:30:24.654Z,64.60
2019-06-01T06:32:54.574Z,63.00
2019-06-01T06:35:24.659Z,64.50
2019-06-01T06:37:54.268Z,63.20
2019-06-01T06:40:24.331Z,65.70
2019-06-01T06:42:54.118Z,67.70
2019-06-01T06:45:24.951Z,67.10
2019-06-01T06:47:54.827Z,67.90
2019-06-01T06:50:25.607Z,66.70
2019-06-01T06:52:55.626Z,66.50
2019-06-01T06:55:26.153Z,67.00
2019-06-01T06:57:56.023Z,67.10
2019-06-01T07:00:26.880Z,68.50
2019-06-01T07:02:56.985Z,67.10
2019-06-01T07:05:28.487Z,67.60
2019-06-01T07:07:58.295Z,68.40
2019-06-01T07:10:28.389Z,68.20
2019-06-01T07:12:58.148Z,67.90
2019-06-01T07:15:28.060Z,67.70
2019-06-01T07:17:57.987Z,67.30
2019-06-01T07:20:28.003Z,66.60
2019-06-01T07:22:57.865Z,66.70
2019-06-01T07:25:28.808Z,65.10
2019-06-01T07:27:58.778Z,65.50
2019-06-01T07:30:28.621Z,66.70
2019-06-01T07:32:59.496Z,65.60
2019-06-01T07:35:29.431Z,65.80
2019-06-01T07:37:59.249Z,67.10
2019-06-01T07:40:29.000Z,65.10
2019-06-01T07:42:59.861Z,65.50
2019-06-01T07:45:33.432Z,64.70
2019-06-01T07:48:01.306Z,65.40
2019-06-01T07:50:32.223Z,64.10
2019-06-01T07:53:02.473Z,64.80
2019-06-01T07:55:32.368Z,63.70
2019-06-01T07:58:02.168Z,63.60
2019-06-01T08:00:33.173Z,63.60
2019-06-01T08:03:04.986Z,63.50
2019-06-01T08:05:34.923Z,62.70
2019-06-01T08:08:04.878Z,60.80
2019-06-01T08:10:35.780Z,61.00
2019-06-01T08:13:05.699Z,60.80
2019-06-01T08:15:35.613Z,59.30
2019-06-01T08:18:05.606Z,58.50
2019-06-01T08:20:35.399Z,58.60
2019-06-01T08:23:05.304Z,57.70
2019-06-01T08:25:35.187Z,57.10
2019-06-01T08:28:05.064Z,58.30
2019-06-01T08:30:34.950Z,55.20
2019-06-01T08:33:04.843Z,56.00
2019-06-01T08:35:34.664Z,55.00
2019-06-01T08:38:04.591Z,55.10
2019-06-01T08:40:34.253Z,55.80
2019-06-01T08:43:04.190Z,52.80
2019-06-01T08:45:37.213Z,54.90
2019-06-01T08:48:05.535Z,54.70
2019-06-01T08:50:35.380Z,54.60
2019-06-01T08:53:05.275Z,54.90
2019-06-01T08:55:35.195Z,54.80
2019-06-01T08:58:05.071Z,52.70
2019-06-01T09:00:35.094Z,50.30
2019-06-01T09:03:04.886Z,51.20
2019-06-01T09:05:35.202Z,52.30
2019-06-01T09:08:05.230Z,52.20
2019-06-01T09:10:35.522Z,51.30
2019-06-01T09:13:06.221Z,49.90
2019-06-01T09:15:36.076Z,50.30
2019-06-01T09:18:07.426Z,51.50
2019-06-01T09:20:39.007Z,51.60
2019-06-01T09:23:10.037Z,50.60
2019-06-01T09:25:40.055Z,48.40
2019-06-01T09:28:10.051Z,50.50
2019-06-01T09:30:40.117Z,51.20
2019-06-01T09:33:10.118Z,51.10
2019-06-01T09:35:54.275Z,52.70
2019-06-01T09:38:12.418Z,51.20
2019-06-01T09:40:42.416Z,52.40
2019-06-01T09:43:12.943Z,50.70
2019-06-01T09:45:42.795Z,51.50
2019-06-01T09:48:13.591Z,52.10
2019-06-01T09:50:45.660Z,53.10
2019-06-01T09:53:17.584Z,52.60
2019-06-01T09:55:47.520Z,51.90
2019-06-01T09:58:17.435Z,52.70
2019-06-01T10:00:49.289Z,53.30
2019-06-01T10:03:20.555Z,53.90
2019-06-01T10:06:01.382Z,54.60
2019-06-01T10:08:25.559Z,53.40
2019-06-01T10:10:57.692Z,53.40
2019-06-01T10:13:30.491Z,52.20
2019-06-01T10:16:00.901Z,53.40
2019-06-01T10:18:30.923Z,53.80
2019-06-01T10:21:00.642Z,51.70
2019-06-01T10:23:30.528Z,51.90
2019-06-01T10:26:00.366Z,51.10
2019-06-01T10:28:31.576Z,51.20
2019-06-01T10:31:02.335Z,51.20
2019-06-01T10:33:32.660Z,49.00
2019-06-01T10:36:19.007Z,49.00
2019-06-01T10:38:35.076Z,47.80
2019-06-01T10:41:05.110Z,48.40
2019-06-01T10:43:35.600Z,49.20
2019-06-01T10:46:05.677Z,49.00
2019-06-01T10:48:36.109Z,49.90
2019-06-01T10:51:06.212Z,49.00
2019-06-01T10:53:36.357Z,47.90
2019-06-01T10:56:06.382Z,49.70
2019-06-01T10:58:54.437Z,48.50
2019-06-01T11:01:07.592Z,46.70
2019-06-01T11:03:38.679Z,47.90
2019-06-01T11:06:08.777Z,48.90
2019-06-01T11:08:39.029Z,48.50
2019-06-01T11:11:08.869Z,48.20
2019-06-01T11:13:39.061Z,49.30
2019-06-01T11:16:09.749Z,48.70
2019-06-01T11:18:39.772Z,47.30
2019-06-01T11:21:09.642Z,46.10
2019-06-01T11:23:43.297Z,47.80
2019-06-01T11:26:10.643Z,47.60
2019-06-01T11:28:42.160Z,48.20
2019-06-01T11:31:12.150Z,48.10
2019-06-01T11:33:42.029Z,48.70
2019-06-01T11:36:13.265Z,49.70
2019-06-01T11:38:44.673Z,47.20
2019-06-01T11:41:18.300Z,46.70
2019-06-01T11:43:46.326Z,46.40
2019-06-01T11:46:16.306Z,48.00
2019-06-01T11:48:47.184Z,48.20
2019-06-01T11:51:17.052Z,47.80
2019-06-01T11:53:46.697Z,49.20
2019-06-01T11:56:17.569Z,49.50
2019-06-01T11:58:47.598Z,49.90
2019-06-01T12:01:17.518Z,49.70
2019-06-01T12:03:47.261Z,49.40
2019-06-01T12:06:17.282Z,49.30
2019-06-01T12:08:47.749Z,49.80
2019-06-01T12:11:17.536Z,50.40
2019-06-01T12:13:47.415Z,48.40
2019-06-01T12:16:17.331Z,47.30
2019-06-01T12:18:47.051Z,48.00
2019-06-01T12:21:16.814Z,45.20
2019-06-01T12:23:47.584Z,44.80
2019-06-01T12:26:17.431Z,46.40
2019-06-01T12:28:47.923Z,46.40
2019-06-01T12:31:18.220Z,47.50
2019-06-01T12:33:48.676Z,47.30
2019-06-01T12:36:18.859Z,46.40
2019-06-01T12:38:50.126Z,47.40
2019-06-01T12:41:22.342Z,47.50
2019-06-01T12:43:54.160Z,48.10
2019-06-01T12:46:24.018Z,46.80
2019-06-01T12:48:54.925Z,47.80
2019-06-01T12:51:24.898Z,49.60
2019-06-01T12:53:54.638Z,49.80
2019-06-01T12:56:24.456Z,51.20
2019-06-01T12:58:54.320Z,48.90
2019-06-01T13:01:24.241Z,47.40
2019-06-01T13:03:53.873Z,46.70
2019-06-01T13:06:23.764Z,47.50
2019-06-01T13:08:53.697Z,48.50
2019-06-01T13:11:23.577Z,48.20
2019-06-01T13:13:53.367Z,48.50
2019-06-01T13:16:23.158Z,47.60
2019-06-01T13:18:53.042Z,47.50
2019-06-01T13:21:23.020Z,46.50
2019-06-01T13:23:52.650Z,46.30
2019-06-01T13:26:22.600Z,44.20
2019-06-01T13:28:52.665Z,46.10
2019-06-01T13:31:22.662Z,46.90
2019-06-01T13:33:53.700Z,47.60
2019-06-01T13:36:23.687Z,48.20
2019-06-01T13:38:53.592Z,47.40
2019-06-01T13:41:23.564Z,47.60
2019-06-01T13:43:53.573Z,47.80
2019-06-01T13:46:23.448Z,48.40
2019-06-01T13:48:54.303Z,48.90
2019-06-01T13:51:24.292Z,48.80
2019-06-01T13:53:54.649Z,48.80
2019-06-01T13:56:24.767Z,49.20
2019-06-01T13:58:54.709Z,48.40
2019-06-01T14:01:24.512Z,47.80
2019-06-01T14:03:55.660Z,48.50
2019-06-01T14:06:25.696Z,49.20
2019-06-01T14:08:55.573Z,50.40
2019-06-01T14:11:25.535Z,50.20
2019-06-01T14:13:56.157Z,50.50
2019-06-01T14:16:25.983Z,51.10
2019-06-01T14:18:56.084Z,51.50
2019-06-01T14:21:25.961Z,52.00
2019-06-01T14:23:56.160Z,52.00
2019-06-01T14:26:27.181Z,51.80
2019-06-01T14:28:56.980Z,51.70
2019-06-01T14:31:26.858Z,52.30
2019-06-01T14:33:56.747Z,51.40
2019-06-01T14:36:26.771Z,51.50
2019-06-01T14:38:58.632Z,51.20
2019-06-01T14:41:27.826Z,51.90
2019-06-01T14:43:57.820Z,51.80
2019-06-01T14:46:27.778Z,51.90
2019-06-01T14:48:57.730Z,51.90
2019-06-01T14:51:27.713Z,52.00
2019-06-01T14:53:57.965Z,53.00
2019-06-01T14:56:27.919Z,52.50
2019-06-01T14:58:58.402Z,53.60
2019-06-01T15:01:32.901Z,50.80
2019-06-01T15:04:00.926Z,50.30
2019-06-01T15:06:31.755Z,49.30
2019-06-01T15:09:15.277Z,49.60
2019-06-01T15:11:33.043Z,50.20
2019-06-01T15:14:02.922Z,50.50
2019-06-01T15:16:32.916Z,49.70
2019-06-01T15:19:02.568Z,49.70
2019-06-01T15:21:32.296Z,48.40
2019-06-01T15:24:02.379Z,47.60
2019-06-01T15:26:32.056Z,47.30
2019-06-01T15:29:03.078Z,47.50
2019-06-01T15:31:33.205Z,47.60
2019-06-01T15:34:03.304Z,47.90
2019-06-01T15:36:33.046Z,48.00
2019-06-01T15:39:14.908Z,47.70
2019-06-01T15:41:37.800Z,48.10
2019-06-01T15:44:08.443Z,47.90
2019-06-01T15:46:38.247Z,48.00
2019-06-01T15:49:10.380Z,48.00
2019-06-01T15:51:40.360Z,48.40
2019-06-01T15:54:10.178Z,48.60
2019-06-01T15:56:40.920Z,49.00
2019-06-01T15:59:10.768Z,48.80
2019-06-01T16:01:40.466Z,48.40
2019-06-01T16:04:10.327Z,47.80
2019-06-01T16:06:40.112Z,47.90
2019-06-01T16:09:10.023Z,47.90
2019-06-01T16:11:40.016Z,47.80
2019-06-01T16:14:09.816Z,47.80
2019-06-01T16:16:39.553Z,48.10
2019-06-01T16:19:09.441Z,48.20
2019-06-01T16:21:39.236Z,48.10
2019-06-01T16:24:09.088Z,48.70
2019-06-01T16:26:38.751Z,48.80
2019-06-01T16:29:08.592Z,49.00
2019-06-01T16:31:38.443Z,48.90
2019-06-01T16:34:08.740Z,48.90
2019-06-01T16:36:38.460Z,48.90
2019-06-01T16:39:09.921Z,49.50
2019-06-01T16:41:40.284Z,50.40
2019-06-01T16:44:11.305Z,50.20
2019-06-01T16:46:41.386Z,50.80
2019-06-01T16:49:11.266Z,51.00
2019-06-01T16:51:43.935Z,51.20
2019-06-01T16:54:13.867Z,51.20
2019-06-01T16:56:43.524Z,51.50
2019-06-01T16:59:13.339Z,51.90
2019-06-01T17:01:43.205Z,52.30
2019-06-01T17:04:13.114Z,52.40
2019-06-01T17:06:43.183Z,52.60
2019-06-01T17:09:13.173Z,53.20
2019-06-01T17:11:43.060Z,53.60
2019-06-01T17:14:13.655Z,53.80
2019-06-01T17:16:43.621Z,54.00
2019-06-01T17:19:13.266Z,54.20
2019-06-01T17:21:43.177Z,54.40
2019-06-01T17:24:13.063Z,54.80
2019-06-01T17:26:42.989Z,54.70
2019-06-01T17:29:12.925Z,54.50
2019-06-01T17:31:54.098Z,54.30
2019-06-01T17:34:14.126Z,54.50
2019-06-01T17:36:43.967Z,54.80
2019-06-01T17:39:13.866Z,55.10
2019-06-01T17:41:43.809Z,54.70
2019-06-01T17:44:13.663Z,54.90
2019-06-01T17:46:53.483Z,54.60
2019-06-01T17:49:15.232Z,54.40
2019-06-01T17:51:45.016Z,53.80
2019-06-01T17:54:14.956Z,54.50
2019-06-01T17:56:44.861Z,53.80
2019-06-01T17:59:14.753Z,53.50
2019-06-01T18:01:44.652Z,53.30
2019-06-01T18:04:14.514Z,54.40
2019-06-01T18:06:44.420Z,53.50
2019-06-01T18:09:14.388Z,53.70
2019-06-01T18:11:44.646Z,53.60
2019-06-01T18:14:14.735Z,53.70
2019-06-01T18:16:44.704Z,53.30
2019-06-01T18:19:14.516Z,53.30
2019-06-01T18:21:44.485Z,53.20
2019-06-01T18:24:14.608Z,52.50
2019-06-01T18:26:44.606Z,52.80
2019-06-01T18:29:14.511Z,52.40
2019-06-01T18:31:44.414Z,52.50
2019-06-01T18:34:14.418Z,52.20
2019-06-01T18:36:44.316Z,52.60
2019-06-01T18:39:14.444Z,52.60
2019-06-01T18:41:44.360Z,52.90
2019-06-01T18:44:14.251Z,52.60
2019-06-01T18:46:44.227Z,52.50
2019-06-01T18:49:17.934Z,52.70
2019-06-01T18:51:45.721Z,52.80
2019-06-01T18:54:15.735Z,52.80
2019-06-01T18:56:45.581Z,52.50
2019-06-01T18:59:15.248Z,52.50
2019-06-01T19:01:45.054Z,52.30
2019-06-01T19:04:15.945Z,52.70
2019-06-01T19:06:45.997Z,52.70
2019-06-01T19:09:15.741Z,52.90
2019-06-01T19:11:45.511Z,53.00
2019-06-01T19:14:16.063Z,53.40
2019-06-01T19:16:45.911Z,53.20
2019-06-01T19:19:16.751Z,53.20
2019-06-01T19:21:46.544Z,53.10
2019-06-01T19:24:16.752Z,53.50
2019-06-01T19:26:46.692Z,53.60
2019-06-01T19:29:17.018Z,53.70
2019-06-01T19:31:46.918Z,53.50
2019-06-01T19:34:17.255Z,54.20
2019-06-01T19:36:47.863Z,54.70
2019-06-01T19:39:17.566Z,54.40
2019-06-01T19:41:47.473Z,54.90
2019-06-01T19:44:17.878Z,54.80
2019-06-01T19:46:49.095Z,54.00
2019-06-01T19:49:19.111Z,53.90
2019-06-01T19:51:48.782Z,54.10
2019-06-01T19:54:19.046Z,53.70
2019-06-01T19:56:49.008Z,54.30
2019-06-01T19:59:18.724Z,54.40
2019-06-01T20:01:48.568Z,54.20
2019-06-01T20:04:18.701Z,54.80
2019-06-01T20:06:48.428Z,55.20
2019-06-01T20:09:19.287Z,55.50
2019-06-01T20:12:01.560Z,55.50
2019-06-01T20:14:20.607Z,55.50
2019-06-01T20:16:50.530Z,56.20
2019-06-01T20:19:20.415Z,57.00
2019-06-01T20:21:50.196Z,56.30
2019-06-01T20:24:21.353Z,56.80
2019-06-01T20:26:51.357Z,56.30
2019-06-01T20:29:21.783Z,56.40
2019-06-01T20:31:51.809Z,56.20
2019-06-01T20:34:22.100Z,56.60
2019-06-01T20:36:51.909Z,56.50
2019-06-01T20:39:22.372Z,56.80
2019-06-01T20:41:52.417Z,57.10
2019-06-01T20:44:22.995Z,57.00
2019-06-01T20:46:53.710Z,56.90
2019-06-01T20:49:23.693Z,57.00
2019-06-01T20:51:53.476Z,57.40
2019-06-01T20:54:23.354Z,56.60
2019-06-01T20:56:53.032Z,56.70
2019-06-01T20:59:24.285Z,57.40
2019-06-01T21:01:54.376Z,57.20
2019-06-01T21:04:24.323Z,57.20
2019-06-01T21:06:54.317Z,57.30
2019-06-01T21:09:24.405Z,57.60
2019-06-01T21:11:54.371Z,57.90
2019-06-01T21:14:24.120Z,58.30
2019-06-01T21:16:53.928Z,58.50
2019-06-01T21:19:24.502Z,58.50
2019-06-01T21:21:54.505Z,58.60
2019-06-01T21:24:25.226Z,59.00
2019-06-01T21:26:54.978Z,58.90
2019-06-01T21:29:25.164Z,59.10
2019-06-01T21:31:55.095Z,59.40
2019-06-01T21:34:25.429Z,59.60
2019-06-01T21:36:55.317Z,60.10
2019-06-01T21:39:25.534Z,60.50
2019-06-01T21:41:55.507Z,60.50
2019-06-01T21:44:25.701Z,60.70
2019-06-01T21:46:55.659Z,61.30
2019-06-01T21:49:26.320Z,61.20
2019-06-01T21:51:56.169Z,61.30
2019-06-01T21:54:26.373Z,61.60
2019-06-01T21:56:56.305Z,61.60
2019-06-01T21:59:27.142Z,62.10
2019-06-01T22:01:57.259Z,62.40
2019-06-01T22:04:27.276Z,62.80
2019-06-01T22:06:58.324Z,63.00
2019-06-01T22:09:28.095Z,63.70
2019-06-01T22:11:57.957Z,64.10
2019-06-01T22:14:27.803Z,64.30
2019-06-01T22:16:57.743Z,64.80
2019-06-01T22:19:28.115Z,65.20
2019-06-01T22:21:57.935Z,65.30
2019-06-01T22:24:28.326Z,65.40
2019-06-01T22:26:58.318Z,65.90
2019-06-01T22:29:28.597Z,66.40
2019-06-01T22:31:58.356Z,66.60
2019-06-01T22:34:29.330Z,66.70
2019-06-01T22:36:59.166Z,67.20
2019-06-01T22:39:29.187Z,67.50
2019-06-01T22:41:59.059Z,67.60
2019-06-01T22:44:28.926Z,68.10
2019-06-01T22:46:58.744Z,68.20
2019-06-01T22:49:28.938Z,68.90
2019-06-01T22:51:58.855Z,69.00
2019-06-01T22:54:29.838Z,69.10
2019-06-01T22:56:59.450Z,69.10
2019-06-01T22:59:29.305Z,69.40
2019-06-01T23:01:58.945Z,69.50
2019-06-01T23:04:29.282Z,69.50
2019-06-01T23:06:59.373Z,69.90
2019-06-01T23:09:29.723Z,70.10
2019-06-01T23:11:59.824Z,70.40
2019-06-01T23:14:29.791Z,70.50
2019-06-01T23:16:59.423Z,70.60
2019-06-01T23:19:29.953Z,70.70
2019-06-01T23:21:59.971Z,70.90
2019-06-01T23:24:30.316Z,70.90
2019-06-01T23:27:00.364Z,71.00
2019-06-01T23:29:30.273Z,71.20
2019-06-01T23:32:00.201Z,71.60
2019-06-01T23:34:30.680Z,71.50
2019-06-01T23:37:00.600Z,71.90
2019-06-01T23:39:30.818Z,71.80
2019-06-01T23:42:00.691Z,71.70
2019-06-01T23:44:33.270Z,72.10
2019-06-01T23:47:01.762Z,72.30
2019-06-01T23:49:31.646Z,72.30
2019-06-01T23:52:01.707Z,72.70
2019-06-01T23:54:32.482Z,72.70
2019-06-01T23:57:02.669Z,72.80
2019-06-01T23:59:32.560Z,73.00
